Bookmark and Share
Track history (hours):
 

Drifting buoy 41936

Last reported at 2014-Apr-24 12:00 UTC. Time now 2014-Apr-24 14:03 UTC.
Position N 28°17' W 070°11'.

Barometer 1015.6 mb
Water temperature 23.1 ° C

NotesDate/timePositionNaut miles runAvg speedWind from/ knotsBaromVisibWave heightAir tempDewpointWater temp
2014-Apr-24 12:00N 28°17' W 070°11'0 0.1 1015.6 23.1
2014-Apr-24 10:00N 28°18' W 070°12'1 0.8 1013.8 23.1
2014-Apr-24 09:00N 28°18' W 070°12'0 0.1 1013.3 23.1
2014-Apr-24 08:00N 28°18' W 070°12'1 1.1 1012.8 23.1
2014-Apr-24 07:00N 28°19' W 070°13'0 0.1 1012.8 23.2
2014-Apr-24 06:00N 28°19' W 070°13'2 0.6 1012.9 23.2
2014-Apr-24 03:00N 28°20' W 070°12'1 0.4 1013.2 23.2
2014-Apr-24 01:00N 28°21' W 070°12'3 0.9 1012.6 23.3
2014-Apr-23 22:00N 28°23' W 070°13'1 0.9 1010.9 23.3
2014-Apr-23 21:00N 28°24' W 070°14'0 0.0 1010.6 23.4
2014-Apr-23 20:00N 28°24' W 070°14'1 1.2 1010.8 23.4
2014-Apr-23 19:00N 28°24' W 070°15'0 0.0 1011.3 23.4
2014-Apr-23 18:00N 28°24' W 070°15'1 0.4 1012.0 23.4
2014-Apr-23 16:00N 28°25' W 070°16'0 0.5 1012.6 23.3
2014-Apr-23 15:00N 28°25' W 070°16'1 1.4 1012.8 23.3
2014-Apr-23 14:00N 28°25' W 070°18'1 0.7 1012.2 23.2
2014-Apr-23 13:00N 28°25' W 070°17'1 0.7 1011.9 23.2
2014-Apr-23 12:00N 28°25' W 070°18'0 0.2 1011.7 23.1
2014-Apr-23 10:00N 28°24' W 070°18'0 0.2 1010.9 23.1
2014-Apr-23 08:00N 28°24' W 070°18'0 0.1 1010.1 23.1
2014-Apr-23 07:00N 28°24' W 070°18'0 0.1 1009.9 23.2
2014-Apr-23 03:00N 28°24' W 070°19'1 0.5 1010.9 23.3
2014-Apr-23 02:00N 28°24' W 070°18'1 0.7 1011.0 23.3
2014-Apr-23 01:00N 28°24' W 070°19'1 0.6 1010.6 23.3
2014-Apr-23 00:00N 28°24' W 070°19'0 0.3 1010.0 23.4
2014-Apr-22 23:00N 28°24' W 070°19'0 0.1 1009.4 23.4
2014-Apr-22 21:00N 28°24' W 070°19'0 0.4 1009.1 23.5
2014-Apr-22 20:00N 28°25' W 070°19'1 0.6 1009.0 23.6
2014-Apr-22 18:00N 28°25' W 070°21'0 0.0 1009.2 23.6
2014-Apr-22 16:00N 28°25' W 070°21'1 0.3 1009.6 23.4
2014-Apr-22 14:00N 28°24' W 070°21'1 0.5 1009.8 23.2
2014-Apr-22 11:00N 28°24' W 070°23'1 1.1 1008.9 23.2
2014-Apr-22 10:00N 28°23' W 070°22'0 0.0 1008.1 23.2
2014-Apr-22 09:00N 28°23' W 070°22'1 1.1 1007.7 23.2
2014-Apr-22 08:00N 28°22' W 070°22'1 1.4 1007.6 23.2
2014-Apr-22 07:00N 28°20' W 070°21'0 0.1 1007.5 23.2
2014-Apr-22 03:00N 28°21' W 070°21'0 0.3 1009.3 23.3
2014-Apr-22 02:00N 28°20' W 070°21'0 0.0 1009.4 23.3
2014-Apr-22 01:00N 28°20' W 070°21'0 0.4 1009.2 23.3
2014-Apr-22 00:00N 28°21' W 070°21'1 0.3 1009.1 23.4
2014-Apr-21 20:00N 28°20' W 070°21'2 1.2 1009.2 23.4
2014-Apr-21 18:00N 28°17' W 070°22'0 0.1 1010.1 23.4
2014-Apr-21 16:00N 28°17' W 070°22'0 0.0 1011.0 23.5
2014-Apr-21 15:00N 28°17' W 070°22'1 0.6 1011.4 23.4
2014-Apr-21 14:00N 28°17' W 070°22'2 0.4 1011.6 23.3
2014-Apr-21 10:00N 28°15' W 070°22'0 0.4 1010.8 23.3
2014-Apr-21 09:00N 28°15' W 070°21'0 0.5 1010.5 23.3
2014-Apr-21 08:00N 28°14' W 070°22'0 0.1 1010.5 23.3
2014-Apr-21 07:00N 28°14' W 070°22'0 0.0 1011.1 23.3
2014-Apr-21 06:00N 28°14' W 070°22'1 0.2 1012.3 23.3
2014-Apr-21 02:00N 28°13' W 070°21'1 0.7 1015.2 23.4
2014-Apr-21 01:00N 28°14' W 070°20'1 0.7 1015.5 23.4
2014-Apr-20 23:00N 28°14' W 070°22'0 0.0 1015.6 23.4
2014-Apr-20 22:00N 28°14' W 070°22'0 0.2 1015.6 23.4
2014-Apr-20 21:00N 28°14' W 070°22'2 1.6 1015.7 23.4
2014-Apr-20 20:00N 28°14' W 070°24'1 0.5 1016.6 23.4
2014-Apr-20 18:00N 28°14' W 070°25'0 0.0 1017.3 23.4
2014-Apr-20 16:00N 28°14' W 070°25'1 0.5 1017.9 23.4
2014-Apr-20 15:00N 28°14' W 070°25'0 0.3 1018.2 23.4
2014-Apr-20 14:00N 28°14' W 070°26'2 0.8 1018.3 23.4
2014-Apr-20 12:00N 28°14' W 070°27'1 0.5 1017.5 23.4
2014-Apr-20 10:00N 28°15' W 070°28'0 0.0 1016.5 23.4
2014-Apr-20 09:00N 28°15' W 070°28'0 0.3 1016.3 23.4
2014-Apr-20 08:00N 28°15' W 070°28'2 2.0 1016.2 23.5
2014-Apr-20 07:00N 28°15' W 070°31'1 0.2 1016.6 23.5
2014-Apr-20 03:00N 28°15' W 070°30'2 1.5 1019.2 23.6
2014-Apr-20 02:00N 28°16' W 070°31'0 0.1 1019.5 23.6
2014-Apr-20 01:00N 28°16' W 070°31'4 1.5 1019.2 23.6
2014-Apr-19 22:00N 28°19' W 070°35'0 0.0 1003.3 -0.1
2014-Apr-19 20:00N 28°19' W 070°35'1 1.0 1018.8 23.7
2014-Apr-19 19:00N 28°19' W 070°36'4 4.0 1019.3 23.7
2014-Apr-19 18:00N 28°22' W 070°39'1 0.2 1020.0 23.7
2014-Apr-19 15:00N 28°21' W 070°40'1 1.0 1021.3 23.4
2014-Apr-19 14:00N 28°22' W 070°40'3 0.9 1021.0 23.3
2014-Apr-19 11:00N 28°23' W 070°43'3 2.8 1020.2 23.2
2014-Apr-19 10:00N 28°24' W 070°46'0 0.5 1020.0 23.2
2014-Apr-19 09:00N 28°24' W 070°45'1 0.4 1019.6 23.2
2014-Apr-19 07:00N 28°25' W 070°46'2 2.1 1020.2 23.2
2014-Apr-19 06:00N 28°25' W 070°48'1 0.4 1020.6 23.2
2014-Apr-19 03:00N 28°27' W 070°48'0 0.4 1021.7 23.1
2014-Apr-19 02:00N 28°27' W 070°49'3 2.7 1021.8 23.1
2014-Apr-19 01:00N 28°29' W 070°49'0 0.0 1021.9 23.0
2014-Apr-19 00:00N 28°29' W 070°49'0 0.0 1021.5 23.0
2014-Apr-18 23:00N 28°29' W 070°49'1 0.3 1021.2 23.0
2014-Apr-18 20:00N 28°30' W 070°50'3 2.8 1021.7 23.3
2014-Apr-18 19:00N 28°32' W 070°52'1 0.4 1021.9 23.1
2014-Apr-18 17:00N 28°32' W 070°51'0 0.0 1022.4 22.9
2014-Apr-18 16:00N 28°32' W 070°51'0 0.1 1022.6 22.8
2014-Apr-18 15:00N 28°32' W 070°51'2 2.2 1022.6 22.8
2014-Apr-18 14:00N 28°33' W 070°54'1 0.4 1022.4 22.7
2014-Apr-18 11:00N 28°34' W 070°53'0 0.4 1021.4 22.6
2014-Apr-18 10:00N 28°34' W 070°53'1 1.2 1020.9 22.6
2014-Apr-18 09:00N 28°35' W 070°54'1 0.3 1021.0 22.6
2014-Apr-18 07:00N 28°35' W 070°55'0 0.0 1021.6 22.7
2014-Apr-18 06:00N 28°35' W 070°55'0 0.0 1021.5 22.7
2014-Apr-18 05:00N 28°35' W 070°55'1 0.3 1021.4 22.7
2014-Apr-18 03:00N 28°36' W 070°55'1 0.6 1022.4 22.9
2014-Apr-18 02:00N 28°36' W 070°54'1 0.6 1022.8 23.0
2014-Apr-18 01:00N 28°36' W 070°55'1 0.6 1022.8 23.1
2014-Apr-18 00:00N 28°36' W 070°55'0 0.1 1022.6 23.1
2014-Apr-17 22:00N 28°36' W 070°55'0 0.0 1022.1 23.2
2014-Apr-17 21:00N 28°36' W 070°55'1 0.9 1022.1 23.4
2014-Apr-17 20:00N 28°37' W 070°54'0 0.0 1022.0 23.3
2014-Apr-17 19:00N 28°37' W 070°54'1 0.3 1022.2 23.3
2014-Apr-17 17:00N 28°38' W 070°54'1 0.5 1022.9 23.2
2014-Apr-17 14:00N 28°39' W 070°54'0 0.5 1022.8 22.8
2014-Apr-17 13:00N 28°39' W 070°54'0 0.0 1021.9 22.7
2014-Apr-17 12:00N 28°39' W 070°54'0 0.4 1021.7 22.6
2014-Apr-17 11:00N 28°40' W 070°54'1 0.6 1020.9 22.6
2014-Apr-17 10:00N 28°40' W 070°55'0 0.2 1019.6 -0.1
2014-Apr-17 09:00N 28°40' W 070°55'0 0.1 1019.5 22.6
2014-Apr-17 08:00N 28°40' W 070°55'0 0.1 1019.2 22.6
2014-Apr-17 06:00N 28°40' W 070°55'0 0.0 1019.3 22.7
2014-Apr-17 05:00N 28°40' W 070°55'0 0.1 1019.9 22.7
2014-Apr-17 03:00N 28°39' W 070°55'1 0.2 1020.3 22.8
2014-Apr-17 00:00N 28°39' W 070°54'0 0.1 1019.7 23.0
2014-Apr-16 21:00N 28°39' W 070°54'0 0.2 1018.6 23.3
2014-Apr-16 20:00N 28°39' W 070°54'0 0.0 1018.6 23.4
2014-Apr-16 19:00N 28°39' W 070°54'0 0.1 1018.8 23.3
2014-Apr-16 17:00N 28°40' W 070°54'0 0.0 1019.2 23.1
2014-Apr-16 16:00N 28°40' W 070°54'0 0.2 1019.2 22.9
2014-Apr-16 15:00N 28°39' W 070°54'1 0.7 1019.1 22.7
2014-Apr-16 13:00N 28°38' W 070°55'0 0.0 1018.1 22.5
2014-Apr-16 12:00N 28°38' W 070°55'0 0.0 1017.5 22.4
2014-Apr-16 11:00N 28°38' W 070°55'0 0.4 1016.8 22.4
2014-Apr-16 10:00N 28°38' W 070°55'0 0.2 1015.8 22.4
2014-Apr-16 09:00N 28°38' W 070°55'0 0.1 1015.5 22.5
2014-Apr-16 06:00N 28°38' W 070°55'1 0.3 1016.7 22.5
2014-Apr-16 03:00N 28°37' W 070°56'0 0.3 1018.4 22.6
2014-Apr-16 02:00N 28°37' W 070°56'2 1.8 1018.2 22.6
2014-Apr-16 01:00N 28°36' W 070°58'0 0.0 1017.9 22.7
2014-Apr-16 00:00N 28°36' W 070°58'0 0.0 1017.3 22.7
2014-Apr-15 23:00N 28°36' W 070°58'3 1.4 1016.7 22.8
2014-Apr-15 21:00N 28°35' W 071°01'0 0.1 1016.2 22.8
2014-Apr-15 19:00N 28°35' W 071°01'2 1.9 1016.9 22.8
2014-Apr-15 18:00N 28°35' W 071°02'1 0.6 1017.7 22.7
2014-Apr-15 16:00N 28°34' W 071°04'3 1.3 1018.3 22.6
2014-Apr-15 14:00N 28°34' W 071°07'1 0.3 1018.6 22.5
2014-Apr-15 11:00N 28°34' W 071°07'0 0.4 1017.6 22.4
2014-Apr-15 10:00N 28°35' W 071°08'2 1.7 1017.2 22.4
2014-Apr-15 09:00N 28°36' W 071°09'1 1.4 1016.9 22.5
2014-Apr-15 08:00N 28°36' W 071°11'0 0.0 1016.8 22.5
2014-Apr-15 07:00N 28°36' W 071°11'0 0.0 1017.7 22.5
2014-Apr-15 06:00N 28°36' W 071°11'3 2.6 1018.1 22.4
2014-Apr-15 05:00N 28°37' W 071°14'0 0.2 1018.5 22.4
2014-Apr-15 03:00N 28°37' W 071°14'1 0.9 1019.7 22.4
2014-Apr-15 02:00N 28°38' W 071°15'0 0.5 1019.6 22.4
2014-Apr-15 01:00N 28°38' W 071°14'2 0.7 1019.6 22.4
2014-Apr-14 22:00N 28°38' W 071°17'1 1.4 1018.9 22.5
2014-Apr-14 21:00N 28°38' W 071°18'0 0.0 1018.8 22.5
2014-Apr-14 20:00N 28°38' W 071°18'0 0.4 1019.0 22.4
2014-Apr-14 19:00N 28°38' W 071°18'0 0.0 1019.5 22.4
2014-Apr-14 18:00N 28°38' W 071°18'2 1.0 1020.1 22.4
2014-Apr-14 16:00N 28°37' W 071°20'0 0.2 1020.7 22.3
2014-Apr-14 15:00N 28°37' W 071°20'2 1.9 1021.2 22.3
2014-Apr-14 14:00N 28°36' W 071°22'0 0.0 1020.9 22.3
2014-Apr-14 13:00N 28°36' W 071°22'   1020.7 22.2

Dump ship's entire track history

sailing weather and tide predictions

Buoy 41936